createdAt,value
2018-02-11T00:00:28.679Z,0.00
2018-02-11T00:01:28.672Z,0.00
2018-02-11T00:02:28.681Z,0.00
2018-02-11T00:03:28.661Z,0.00
2018-02-11T00:04:28.649Z,0.00
2018-02-11T00:05:28.665Z,0.00
2018-02-11T00:06:28.631Z,0.00
2018-02-11T00:07:28.635Z,0.00
2018-02-11T00:08:28.614Z,0.00
2018-02-11T00:09:28.613Z,0.00
2018-02-11T00:10:28.605Z,0.00
2018-02-11T00:11:28.591Z,0.00
2018-02-11T00:12:28.582Z,0.00
2018-02-11T00:13:28.576Z,0.00
2018-02-11T00:14:28.609Z,0.00
2018-02-11T00:15:28.576Z,0.00
2018-02-11T00:16:28.551Z,0.00
2018-02-11T00:17:28.547Z,0.00
2018-02-11T00:18:28.534Z,0.00
2018-02-11T00:19:28.532Z,0.00
2018-02-11T00:20:28.524Z,0.00
2018-02-11T00:21:28.517Z,0.00
2018-02-11T00:22:28.503Z,0.00
2018-02-11T00:23:28.494Z,0.00
2018-02-11T00:24:28.485Z,0.00
2018-02-11T00:25:28.479Z,0.00
2018-02-11T00:26:28.472Z,0.00
2018-02-11T00:27:28.466Z,0.00
2018-02-11T00:28:28.459Z,0.00
2018-02-11T00:29:28.466Z,0.00
2018-02-11T00:30:28.437Z,0.00
2018-02-11T00:31:28.429Z,0.00
2018-02-11T00:32:28.422Z,0.00
2018-02-11T00:33:28.416Z,0.00
2018-02-11T00:34:28.407Z,0.00
2018-02-11T00:35:28.396Z,0.00
2018-02-11T00:36:28.388Z,0.00
2018-02-11T00:37:28.389Z,0.00
2018-02-11T00:38:28.391Z,0.00
2018-02-11T00:39:28.364Z,0.00
2018-02-11T00:40:28.353Z,0.00
2018-02-11T00:41:28.348Z,0.00
2018-02-11T00:42:28.344Z,0.00
2018-02-11T00:43:28.331Z,0.00
2018-02-11T00:44:28.323Z,0.00
2018-02-11T00:45:28.328Z,0.00
2018-02-11T00:46:28.308Z,0.00
2018-02-11T00:47:28.301Z,0.00
2018-02-11T00:48:28.287Z,0.00
2018-02-11T00:49:28.282Z,0.00
2018-02-11T00:50:28.274Z,0.00
2018-02-11T00:51:28.266Z,0.00
2018-02-11T00:52:28.257Z,0.00
2018-02-11T00:53:28.249Z,0.00
2018-02-11T00:54:28.269Z,0.00
2018-02-11T00:55:28.246Z,0.00
2018-02-11T00:56:28.241Z,0.00
2018-02-11T00:57:28.240Z,0.00
2018-02-11T00:58:28.220Z,0.00
2018-02-11T00:59:28.205Z,0.00
2018-02-11T01:00:28.237Z,0.00
2018-02-11T01:01:28.221Z,0.00
2018-02-11T01:02:28.181Z,0.00
2018-02-11T01:03:28.177Z,0.00
2018-02-11T01:04:28.168Z,0.00
2018-02-11T01:05:28.153Z,0.00
2018-02-11T01:06:28.145Z,0.00
2018-02-11T01:07:28.138Z,0.00
2018-02-11T01:08:28.132Z,0.00
2018-02-11T01:09:28.117Z,0.00
2018-02-11T01:10:28.113Z,0.00
2018-02-11T01:11:28.109Z,0.00
2018-02-11T01:12:28.109Z,0.00
2018-02-11T01:13:28.091Z,0.00
2018-02-11T01:14:28.090Z,0.00
2018-02-11T01:15:28.079Z,0.00
2018-02-11T01:16:28.065Z,0.00
2018-02-11T01:17:28.067Z,0.00
2018-02-11T01:18:28.056Z,0.00
2018-02-11T01:19:28.073Z,0.00
2018-02-11T01:20:28.039Z,0.00
2018-02-11T01:21:28.033Z,0.00
2018-02-11T01:22:28.019Z,0.00
2018-02-11T01:23:28.026Z,0.00
2018-02-11T01:24:28.003Z,0.00
2018-02-11T01:25:27.995Z,0.00
2018-02-11T01:26:27.985Z,0.00
2018-02-11T01:27:28.021Z,0.00
2018-02-11T01:28:27.974Z,0.00
2018-02-11T01:29:27.965Z,0.00
2018-02-11T01:30:27.960Z,0.00
2018-02-11T01:31:27.984Z,0.00
2018-02-11T01:32:27.957Z,0.00
2018-02-11T01:33:27.951Z,0.00
2018-02-11T01:34:27.992Z,0.00
2018-02-11T01:35:27.914Z,0.00
2018-02-11T01:36:27.910Z,0.00
2018-02-11T01:37:27.900Z,0.00
2018-02-11T01:38:27.901Z,0.00
2018-02-11T01:39:27.928Z,0.00
2018-02-11T01:40:27.870Z,0.00
2018-02-11T01:41:27.866Z,0.00
2018-02-11T01:42:27.856Z,0.00
2018-02-11T01:43:27.852Z,0.00
2018-02-11T01:44:27.839Z,0.00
2018-02-11T01:45:27.832Z,0.00
2018-02-11T01:46:27.824Z,0.00
2018-02-11T01:47:27.816Z,0.00
2018-02-11T01:48:27.805Z,0.00
2018-02-11T01:49:27.800Z,0.00
2018-02-11T01:50:27.798Z,0.00
2018-02-11T01:51:27.784Z,0.00
2018-02-11T01:52:27.776Z,0.00
2018-02-11T01:53:27.766Z,0.00
2018-02-11T01:54:27.763Z,0.00
2018-02-11T01:55:27.755Z,0.00
2018-02-11T01:56:27.743Z,0.00
2018-02-11T01:57:27.765Z,0.00
2018-02-11T01:58:27.750Z,0.00
2018-02-11T01:59:27.739Z,0.00
2018-02-11T02:00:27.718Z,0.00
2018-02-11T02:01:27.703Z,0.00
2018-02-11T02:02:27.693Z,0.00
2018-02-11T02:03:27.686Z,0.00
2018-02-11T02:04:27.673Z,0.00
2018-02-11T02:05:27.675Z,0.00
2018-02-11T02:06:27.696Z,0.00
2018-02-11T02:07:27.652Z,0.00
2018-02-11T02:08:27.643Z,0.00
2018-02-11T02:09:27.651Z,0.00
2018-02-11T02:10:27.629Z,0.00
2018-02-11T02:11:27.647Z,0.00
2018-02-11T02:12:27.647Z,0.00
2018-02-11T02:13:27.619Z,0.00
2018-02-11T02:14:27.623Z,0.00
2018-02-11T02:15:27.586Z,0.00
2018-02-11T02:16:27.578Z,0.00
2018-02-11T02:17:27.574Z,0.00
2018-02-11T02:18:27.569Z,0.00
2018-02-11T02:19:27.562Z,0.00
2018-02-11T02:20:27.566Z,0.00
2018-02-11T02:21:27.544Z,0.00
2018-02-11T02:22:27.579Z,0.00
2018-02-11T02:23:27.524Z,0.00
2018-02-11T02:24:27.523Z,0.00
2018-02-11T02:25:27.508Z,0.00
2018-02-11T02:26:27.511Z,0.00
2018-02-11T02:27:27.492Z,0.00
2018-02-11T02:28:27.485Z,0.00
2018-02-11T02:29:27.472Z,0.00
2018-02-11T02:30:27.471Z,0.00
2018-02-11T02:31:27.477Z,0.00
2018-02-11T02:32:27.468Z,0.00
2018-02-11T02:33:27.440Z,0.00
2018-02-11T02:34:27.439Z,0.00
2018-02-11T02:35:27.422Z,0.00
2018-02-11T02:36:27.442Z,0.00
2018-02-11T02:37:27.430Z,0.00
2018-02-11T02:38:27.404Z,0.00
2018-02-11T02:39:27.398Z,0.00
2018-02-11T02:40:27.401Z,0.00
2018-02-11T02:41:27.377Z,0.00
2018-02-11T02:42:27.369Z,0.00
2018-02-11T02:43:27.355Z,0.00
2018-02-11T02:44:27.347Z,0.00
2018-02-11T02:45:27.363Z,0.00
2018-02-11T02:46:27.330Z,0.00
2018-02-11T02:47:27.332Z,0.00
2018-02-11T02:48:27.316Z,0.00
2018-02-11T02:49:27.317Z,0.00
2018-02-11T02:50:27.311Z,0.00
2018-02-11T02:51:27.294Z,0.00
2018-02-11T02:52:27.285Z,0.00
2018-02-11T02:53:27.277Z,0.00
2018-02-11T02:54:27.271Z,0.00
2018-02-11T02:55:27.255Z,0.00
2018-02-11T02:56:27.278Z,0.00
2018-02-11T02:57:27.240Z,0.00
2018-02-11T02:58:27.253Z,0.00
2018-02-11T02:59:27.236Z,0.00
2018-02-11T03:00:27.220Z,0.00
2018-02-11T03:01:27.210Z,0.00
2018-02-11T03:02:27.232Z,0.00
2018-02-11T03:03:27.191Z,0.00
2018-02-11T03:04:27.184Z,0.00
2018-02-11T03:05:27.174Z,0.00
2018-02-11T03:06:27.228Z,0.00
2018-02-11T03:07:27.184Z,0.00
2018-02-11T03:08:27.150Z,0.00
2018-02-11T03:09:27.165Z,0.00
2018-02-11T03:10:27.135Z,0.00
2018-02-11T03:11:27.141Z,0.00
2018-02-11T03:12:27.118Z,0.00
2018-02-11T03:13:27.122Z,0.00
2018-02-11T03:14:27.138Z,0.00
2018-02-11T03:15:27.097Z,0.00
2018-02-11T03:16:27.086Z,0.00
2018-02-11T03:17:27.076Z,0.00
2018-02-11T03:18:27.070Z,0.00
2018-02-11T03:19:27.098Z,0.00
2018-02-11T03:20:27.059Z,0.00
2018-02-11T03:21:27.068Z,0.00
2018-02-11T03:22:27.040Z,0.00
2018-02-11T03:23:27.027Z,0.00
2018-02-11T03:24:27.032Z,0.00
2018-02-11T03:25:27.019Z,0.00
2018-02-11T03:26:27.004Z,0.00
2018-02-11T03:27:26.998Z,0.00
2018-02-11T03:28:26.993Z,0.00
2018-02-11T03:29:26.977Z,0.00
2018-02-11T03:30:26.980Z,0.00
2018-02-11T03:31:27.013Z,0.00
2018-02-11T03:32:26.951Z,0.00
2018-02-11T03:33:26.983Z,0.00
2018-02-11T03:34:26.943Z,0.00
2018-02-11T03:35:26.933Z,0.00
2018-02-11T03:36:26.919Z,0.00
2018-02-11T03:37:26.911Z,0.00
2018-02-11T03:38:26.903Z,0.00
2018-02-11T03:39:26.895Z,0.00
2018-02-11T03:40:26.890Z,0.00
2018-02-11T03:41:26.908Z,0.00
2018-02-11T03:42:26.877Z,0.00
2018-02-11T03:43:26.862Z,0.00
2018-02-11T03:44:26.856Z,0.00
2018-02-11T03:45:26.847Z,0.00
2018-02-11T03:46:26.846Z,0.00
2018-02-11T03:47:26.828Z,0.00
2018-02-11T03:48:26.818Z,0.00
2018-02-11T03:49:26.812Z,0.00
2018-02-11T03:50:26.807Z,0.00
2018-02-11T03:51:26.804Z,0.00
2018-02-11T03:52:26.814Z,0.00
2018-02-11T03:53:26.780Z,0.00
2018-02-11T03:54:26.773Z,0.00
2018-02-11T03:55:26.767Z,0.00
2018-02-11T03:56:26.753Z,0.00
2018-02-11T03:57:26.744Z,0.00
2018-02-11T03:58:26.735Z,0.00
2018-02-11T03:59:26.726Z,0.00
2018-02-11T04:00:26.722Z,0.00
2018-02-11T04:01:26.765Z,0.00
2018-02-11T04:02:26.702Z,0.00
2018-02-11T04:03:26.693Z,0.00
2018-02-11T04:04:26.695Z,0.00
2018-02-11T04:05:26.677Z,0.00
2018-02-11T04:06:26.698Z,0.00
2018-02-11T04:07:26.665Z,0.00
2018-02-11T04:08:26.657Z,0.00
2018-02-11T04:09:26.646Z,0.00
2018-02-11T04:10:26.638Z,0.00
2018-02-11T04:11:26.630Z,0.00
2018-02-11T04:12:26.617Z,0.00
2018-02-11T04:13:26.625Z,0.00
2018-02-11T04:14:26.605Z,0.00
2018-02-11T04:15:26.593Z,0.00
2018-02-11T04:16:26.585Z,0.00
2018-02-11T04:17:26.575Z,0.00
2018-02-11T04:18:26.566Z,0.00
2018-02-11T04:19:26.559Z,0.00
2018-02-11T04:20:26.552Z,0.00
2018-02-11T04:21:26.544Z,0.00
2018-02-11T04:22:26.537Z,0.00
2018-02-11T04:23:26.525Z,0.00
2018-02-11T04:24:26.518Z,0.00
2018-02-11T04:25:26.528Z,0.00
2018-02-11T04:26:26.499Z,0.00
2018-02-11T04:27:26.496Z,0.00
2018-02-11T04:28:26.482Z,0.00
2018-02-11T04:29:26.472Z,0.00
2018-02-11T04:30:26.468Z,0.00
2018-02-11T04:31:26.454Z,0.00
2018-02-11T04:32:26.447Z,0.00
2018-02-11T04:33:26.439Z,0.00
2018-02-11T04:34:26.434Z,0.00
2018-02-11T04:35:26.446Z,0.00
2018-02-11T04:36:26.419Z,0.00
2018-02-11T04:37:26.420Z,0.00
2018-02-11T04:38:26.405Z,0.00
2018-02-11T04:39:26.398Z,0.00
2018-02-11T04:40:26.380Z,0.00
2018-02-11T04:41:26.371Z,0.00
2018-02-11T04:42:26.368Z,0.00
2018-02-11T04:43:26.353Z,0.00
2018-02-11T04:44:26.347Z,0.00
2018-02-11T04:45:26.339Z,0.00
2018-02-11T04:46:26.334Z,0.00
2018-02-11T04:47:26.324Z,0.00
2018-02-11T04:48:26.311Z,0.00
2018-02-11T04:49:26.322Z,0.00
2018-02-11T04:50:26.303Z,0.00
2018-02-11T04:51:26.327Z,0.00
2018-02-11T04:52:26.279Z,0.00
2018-02-11T04:53:26.313Z,0.00
2018-02-11T04:54:26.265Z,0.00
2018-02-11T04:55:26.255Z,0.00
2018-02-11T04:56:26.248Z,0.00
2018-02-11T04:57:26.271Z,0.00
2018-02-11T04:58:26.228Z,0.00
2018-02-11T04:59:26.258Z,0.00
2018-02-11T05:00:26.214Z,0.00
2018-02-11T05:01:26.203Z,0.00
2018-02-11T05:02:26.239Z,0.00
2018-02-11T05:03:26.190Z,0.00
2018-02-11T05:04:26.176Z,0.00
2018-02-11T05:05:26.214Z,0.00
2018-02-11T05:06:26.159Z,0.00
2018-02-11T05:07:26.158Z,0.00
2018-02-11T05:08:26.148Z,0.00
2018-02-11T05:09:26.153Z,0.00
2018-02-11T05:10:26.129Z,0.00
2018-02-11T05:11:26.118Z,0.00
2018-02-11T05:12:26.110Z,0.00
2018-02-11T05:13:26.102Z,0.00
2018-02-11T05:14:26.093Z,0.00
2018-02-11T05:15:26.103Z,0.00
2018-02-11T05:16:26.080Z,0.00
2018-02-11T05:17:26.066Z,0.00
2018-02-11T05:18:26.069Z,0.00
2018-02-11T05:19:26.053Z,0.00
2018-02-11T05:20:26.054Z,0.00
2018-02-11T05:21:26.066Z,0.00
2018-02-11T06:01:05.309Z,0.00
2018-02-11T06:02:05.167Z,0.00
2018-02-11T06:03:59.661Z,0.00
2018-02-11T06:04:59.431Z,0.00
2018-02-11T06:06:53.837Z,0.00
2018-02-11T06:07:53.827Z,0.00
2018-02-11T06:09:48.227Z,0.00
2018-02-11T06:10:48.113Z,4.00
2018-02-11T06:11:48.693Z,4.00
2018-02-11T06:12:48.429Z,0.00
2018-02-11T06:13:47.997Z,0.00
2018-02-11T06:14:47.988Z,4.00
2018-02-11T06:15:47.994Z,4.00
2018-02-11T06:16:47.965Z,4.00
2018-02-11T06:17:47.956Z,0.00
2018-02-11T06:18:47.952Z,4.00
2018-02-11T06:19:47.980Z,8.00
2018-02-11T06:20:47.963Z,4.00
2018-02-11T06:21:47.922Z,4.00
2018-02-11T06:22:47.921Z,12.00
2018-02-11T06:23:47.902Z,8.00
2018-02-11T06:24:47.919Z,12.00
2018-02-11T06:25:47.898Z,16.00
2018-02-11T06:26:47.878Z,20.00
2018-02-11T06:27:47.867Z,20.00
2018-02-11T06:28:47.861Z,24.00
2018-02-11T06:29:47.854Z,24.00
2018-02-11T06:30:47.908Z,28.00
2018-02-11T06:31:56.569Z,28.00
2018-02-11T06:33:42.425Z,32.00
2018-02-11T06:34:42.282Z,36.00
2018-02-11T06:36:36.714Z,40.00
2018-02-11T06:37:36.552Z,44.00
2018-02-11T06:39:30.967Z,52.00
2018-02-11T06:40:31.453Z,56.00
2018-02-11T06:42:25.331Z,68.00
2018-02-11T06:43:25.205Z,76.00
2018-02-11T06:44:25.343Z,84.00
2018-02-11T06:45:25.463Z,96.00
2018-02-11T06:46:25.488Z,104.00
2018-02-11T06:47:25.169Z,120.00
2018-02-11T06:48:25.166Z,132.00
2018-02-11T06:49:25.164Z,140.00
2018-02-11T06:50:25.146Z,140.00
2018-02-11T06:51:25.140Z,144.00
2018-02-11T06:52:25.142Z,144.00
2018-02-11T06:53:25.123Z,140.00
2018-02-11T06:54:25.142Z,140.00
2018-02-11T06:55:25.101Z,136.00
2018-02-11T06:56:25.292Z,132.00
2018-02-11T06:57:25.088Z,136.00
2018-02-11T06:58:25.121Z,140.00
2018-02-11T06:59:25.069Z,148.00
2018-02-11T07:00:25.069Z,152.00
2018-02-11T07:01:25.085Z,156.00
2018-02-11T07:02:25.095Z,164.00
2018-02-11T07:03:25.037Z,172.00
2018-02-11T07:04:25.031Z,180.00
2018-02-11T07:05:25.018Z,192.00
2018-02-11T07:06:25.005Z,208.00
2018-02-11T07:07:24.998Z,216.00
2018-02-11T07:08:25.048Z,228.00
2018-02-11T07:09:24.980Z,244.00
2018-02-11T07:10:25.019Z,256.00
2018-02-11T07:11:24.979Z,276.00
2018-02-11T07:12:24.953Z,304.00
2018-02-11T07:13:24.952Z,332.00
2018-02-11T07:14:24.999Z,372.00
2018-02-11T07:15:24.933Z,416.00
2018-02-11T07:16:24.919Z,460.00
2018-02-11T07:17:24.911Z,500.00
2018-02-11T07:18:24.902Z,540.00
2018-02-11T07:19:24.901Z,588.00
2018-02-11T07:20:24.914Z,628.00
2018-02-11T07:21:24.877Z,640.00
2018-02-11T07:22:24.892Z,676.00
2018-02-11T07:23:24.861Z,708.00
2018-02-11T07:24:24.892Z,720.00
2018-02-11T07:25:24.842Z,728.00
2018-02-11T07:26:24.837Z,708.00
2018-02-11T07:27:24.825Z,648.00
2018-02-11T07:28:26.769Z,600.00
2018-02-11T07:29:24.918Z,568.00
2018-02-11T07:30:24.801Z,532.00
2018-02-11T07:31:24.793Z,516.00
2018-02-11T07:32:24.781Z,492.00
2018-02-11T07:33:24.776Z,460.00
2018-02-11T07:34:24.766Z,444.00
2018-02-11T07:35:24.759Z,448.00
2018-02-11T07:36:24.758Z,440.00
2018-02-11T07:37:24.739Z,424.00
2018-02-11T07:38:24.751Z,432.00
2018-02-11T07:39:24.725Z,448.00
2018-02-11T07:40:24.715Z,456.00
2018-02-11T07:41:24.866Z,464.00
2018-02-11T07:42:24.708Z,460.00
2018-02-11T07:43:24.704Z,440.00
2018-02-11T07:44:24.691Z,428.00
2018-02-11T07:45:24.672Z,432.00
2018-02-11T07:46:24.672Z,436.00
2018-02-11T07:47:24.658Z,440.00
2018-02-11T07:48:24.650Z,448.00
2018-02-11T07:49:24.639Z,468.00
2018-02-11T07:50:24.631Z,492.00
2018-02-11T07:51:24.624Z,516.00
2018-02-11T07:52:24.614Z,536.00
2018-02-11T07:53:24.604Z,560.00
2018-02-11T07:54:24.660Z,576.00
2018-02-11T07:55:26.271Z,592.00
2018-02-11T07:56:24.583Z,620.00
2018-02-11T07:57:24.573Z,648.00
2018-02-11T07:58:24.567Z,672.00
2018-02-11T07:59:24.561Z,700.00
2018-02-11T08:00:24.545Z,724.00
2018-02-11T08:01:24.541Z,752.00
2018-02-11T08:02:24.533Z,776.00
2018-02-11T08:03:24.522Z,808.00
2018-02-11T08:04:24.518Z,832.00
2018-02-11T08:05:24.504Z,880.00
2018-02-11T08:06:24.581Z,928.00
2018-02-11T08:07:24.498Z,916.00
2018-02-11T08:08:24.481Z,884.00
2018-02-11T08:09:24.469Z,864.00
2018-02-11T08:10:24.519Z,900.00
2018-02-11T08:11:24.462Z,968.00
2018-02-11T08:12:24.450Z,1048.00
2018-02-11T08:13:24.440Z,1100.00
2018-02-11T08:14:24.430Z,1156.00
2018-02-11T08:15:24.428Z,1192.00
2018-02-11T08:16:24.468Z,1232.00
2018-02-11T08:17:24.438Z,1292.00
2018-02-11T08:18:24.406Z,1348.00
2018-02-11T08:19:24.390Z,1432.00
2018-02-11T08:20:24.379Z,1500.00
2018-02-11T08:21:24.371Z,1528.00
2018-02-11T08:22:24.367Z,1528.00
2018-02-11T08:23:24.356Z,1540.00
2018-02-11T08:24:24.361Z,1556.00
2018-02-11T08:25:24.339Z,1644.00
2018-02-11T08:26:24.331Z,1804.00
2018-02-11T08:27:24.354Z,2112.00
2018-02-11T08:28:24.321Z,2416.00
2018-02-11T08:29:24.308Z,2716.00
2018-02-11T08:30:24.315Z,3052.00
2018-02-11T08:31:24.294Z,3260.00
2018-02-11T08:32:24.413Z,3544.00
2018-02-11T08:33:24.279Z,3824.00
2018-02-11T08:34:24.269Z,4096.00
2018-02-11T08:35:24.260Z,4608.00
2018-02-11T08:36:24.252Z,6236.00
2018-02-11T08:37:24.661Z,24640.00
2018-02-11T08:38:24.237Z,8012.00
2018-02-11T08:39:24.252Z,7004.00
2018-02-11T08:40:24.220Z,6304.00
2018-02-11T08:41:24.230Z,10472.00
2018-02-11T08:42:24.207Z,6352.00
2018-02-11T08:43:24.201Z,4024.00
2018-02-11T08:44:24.198Z,3844.00
2018-02-11T08:45:24.193Z,11664.00
2018-02-11T08:46:24.178Z,3140.00
2018-02-11T08:47:24.172Z,2004.00
2018-02-11T08:48:24.162Z,1512.00
2018-02-11T08:49:25.192Z,1336.00
2018-02-11T08:50:24.168Z,1304.00
2018-02-11T08:51:24.144Z,1400.00
2018-02-11T08:52:24.138Z,1468.00
2018-02-11T08:53:24.129Z,1576.00
2018-02-11T08:54:24.124Z,1512.00
2018-02-11T08:55:24.356Z,1492.00
2018-02-11T09:00:15.723Z,2256.00
2018-02-11T09:01:43.146Z,2084.00
2018-02-11T09:04:23.538Z,1432.00
2018-02-11T09:05:23.646Z,1416.00
2018-02-11T09:08:07.254Z,1356.00
2018-02-11T09:08:20.726Z,1352.00
2018-02-11T09:09:35.057Z,1388.00
2018-02-11T09:11:19.203Z,1388.00
2018-02-11T09:12:17.377Z,1292.00
2018-02-11T09:13:17.252Z,1392.00
2018-02-11T09:14:17.140Z,1428.00
2018-02-11T09:16:40.305Z,1524.00
2018-02-11T09:17:41.095Z,1576.00
2018-02-11T09:18:40.154Z,1636.00
2018-02-11T09:19:40.135Z,1576.00
2018-02-11T09:20:40.120Z,1760.00
2018-02-11T09:21:40.377Z,2256.00
2018-02-11T09:22:40.086Z,2468.00
2018-02-11T09:23:41.691Z,2360.00
2018-02-11T09:24:40.073Z,2504.00
2018-02-11T09:25:40.066Z,2592.00
2018-02-11T09:26:40.059Z,2676.00
2018-02-11T09:27:40.053Z,2828.00
2018-02-11T09:28:40.038Z,3188.00
2018-02-11T09:29:40.037Z,5640.00
2018-02-11T09:30:40.025Z,5180.00
2018-02-11T09:31:40.049Z,5760.00
2018-02-11T09:32:41.716Z,8600.00
2018-02-11T09:33:42.697Z,11060.00
2018-02-11T09:34:40.000Z,9960.00
2018-02-11T09:35:40.001Z,8944.00
2018-02-11T09:36:39.999Z,7336.00
2018-02-11T09:37:40.120Z,5156.00
2018-02-11T09:38:39.971Z,6256.00
2018-02-11T09:39:39.999Z,6184.00
2018-02-11T09:40:39.983Z,6276.00
2018-02-11T09:41:39.966Z,5876.00
2018-02-11T09:42:39.969Z,6328.00
2018-02-11T09:43:40.005Z,3860.00
2018-02-11T09:44:40.065Z,3904.00
2018-02-11T09:45:41.723Z,3428.00
2018-02-11T09:48:22.175Z,2188.00
2018-02-11T09:49:06.614Z,2380.00
2018-02-11T09:50:07.048Z,2604.00
2018-02-11T09:51:06.466Z,2960.00
2018-02-11T09:55:27.933Z,2660.00
2018-02-11T09:56:27.743Z,2620.00
2018-02-11T09:57:27.615Z,2664.00
2018-02-11T09:58:27.613Z,2792.00
2018-02-11T10:04:57.305Z,2060.00
2018-02-11T10:05:30.253Z,2224.00
2018-02-11T10:08:18.986Z,2668.00
2018-02-11T10:09:19.230Z,2460.00
2018-02-11T10:11:14.178Z,2580.00
2018-02-11T10:12:14.176Z,2876.00
2018-02-11T10:14:08.578Z,5464.00
2018-02-11T10:15:08.532Z,11408.00
2018-02-11T10:17:02.906Z,4800.00
2018-02-11T10:18:03.004Z,4148.00
2018-02-11T10:19:57.471Z,4072.00
2018-02-11T10:20:57.274Z,5124.00
2018-02-11T10:21:57.201Z,7376.00
2018-02-11T10:22:57.192Z,11636.00
2018-02-11T10:23:57.165Z,8248.00
2018-02-11T10:24:57.159Z,8020.00
2018-02-11T10:25:57.152Z,8980.00
2018-02-11T10:26:57.144Z,21472.00
2018-02-11T10:27:57.138Z,32672.00
2018-02-11T10:28:57.129Z,29312.00
2018-02-11T10:29:57.124Z,22816.00
2018-02-11T10:30:57.114Z,6292.00
2018-02-11T10:31:57.113Z,23296.00
2018-02-11T10:32:57.103Z,21632.00
2018-02-11T10:33:57.100Z,28832.00
2018-02-11T10:34:57.099Z,41792.00
2018-02-11T10:35:57.085Z,24640.00
2018-02-11T10:36:57.108Z,32448.00
2018-02-11T10:37:57.075Z,38944.00
2018-02-11T10:38:57.066Z,50496.00
2018-02-11T10:39:57.062Z,42816.00
2018-02-11T10:40:57.056Z,71808.00
2018-02-11T10:41:57.064Z,63680.00
2018-02-11T10:42:57.050Z,82624.00
2018-02-11T10:43:57.045Z,22016.00
2018-02-11T10:44:57.041Z,88704.00
2018-02-11T10:45:57.038Z,81760.00
2018-02-11T10:46:57.035Z,84000.00
2018-02-11T10:47:57.094Z,89088.00
2018-02-11T10:48:57.031Z,64768.00
2018-02-11T10:50:00.942Z,26240.00
2018-02-11T10:50:58.767Z,21856.00
2018-02-11T10:51:57.023Z,14588.00
2018-02-11T10:52:57.020Z,13044.00
2018-02-11T10:53:59.101Z,8948.00
2018-02-11T10:54:57.013Z,8052.00
2018-02-11T10:55:57.010Z,7368.00
2018-02-11T10:56:57.006Z,5684.00
2018-02-11T10:57:57.006Z,4764.00
2018-02-11T10:58:56.998Z,4544.00
2018-02-11T10:59:56.994Z,4212.00
2018-02-11T11:00:56.990Z,4068.00
2018-02-11T11:01:56.985Z,4456.00
2018-02-11T11:02:56.982Z,5584.00
2018-02-11T11:03:56.973Z,5288.00
2018-02-11T11:04:56.968Z,4624.00
2018-02-11T11:05:56.963Z,4736.00
2018-02-11T11:06:56.954Z,4084.00
2018-02-11T11:07:56.948Z,3728.00
2018-02-11T11:08:56.946Z,3468.00
2018-02-11T11:09:56.938Z,3652.00
2018-02-11T11:10:56.944Z,3544.00
2018-02-11T11:11:56.926Z,3424.00
2018-02-11T11:12:56.921Z,3532.00
2018-02-11T11:13:56.914Z,3308.00
2018-02-11T11:14:56.907Z,3312.00
2018-02-11T11:15:56.900Z,3380.00
2018-02-11T11:16:56.892Z,3188.00
2018-02-11T11:17:56.888Z,3300.00
2018-02-11T11:18:56.879Z,3224.00
2018-02-11T11:19:56.886Z,3116.00
2018-02-11T11:20:56.916Z,3196.00
2018-02-11T11:21:56.884Z,3492.00
2018-02-11T11:22:56.853Z,3476.00
2018-02-11T11:23:56.846Z,3348.00
2018-02-11T11:24:56.838Z,3044.00
2018-02-11T11:25:56.833Z,2768.00
2018-02-11T11:26:56.826Z,2564.00
2018-02-11T11:27:56.818Z,2564.00
2018-02-11T11:28:56.810Z,2680.00
2018-02-11T11:29:56.810Z,2452.00
2018-02-11T11:30:57.106Z,2332.00
2018-02-11T11:31:56.812Z,2228.00
2018-02-11T11:32:56.799Z,2096.00
2018-02-11T11:33:56.783Z,1984.00
2018-02-11T11:34:56.775Z,1804.00
2018-02-11T11:35:56.765Z,1592.00
2018-02-11T11:36:56.756Z,1472.00
2018-02-11T11:37:56.747Z,1540.00
2018-02-11T11:38:56.771Z,1564.00
2018-02-11T11:39:56.752Z,1380.00
2018-02-11T11:40:56.724Z,1344.00
2018-02-11T11:41:56.800Z,1320.00
2018-02-11T11:42:56.712Z,1312.00
2018-02-11T11:43:56.702Z,1436.00
2018-02-11T11:44:56.694Z,1788.00
2018-02-11T11:45:56.690Z,1896.00
2018-02-11T11:46:56.684Z,1836.00
2018-02-11T11:47:56.674Z,1920.00
2018-02-11T11:48:56.668Z,1992.00
2018-02-11T11:49:56.662Z,1928.00
2018-02-11T11:50:56.688Z,1936.00
2018-02-11T11:51:58.309Z,1744.00
2018-02-11T11:52:56.637Z,1644.00
2018-02-11T11:53:56.665Z,1516.00
2018-02-11T11:54:56.679Z,1528.00
2018-02-11T11:55:56.648Z,1540.00
2018-02-11T11:56:58.281Z,1596.00
2018-02-11T11:57:56.657Z,1600.00
2018-02-11T11:58:56.591Z,1604.00
2018-02-11T11:59:56.583Z,1528.00
2018-02-11T12:00:56.605Z,1476.00
2018-02-11T12:01:56.575Z,1396.00
2018-02-11T12:02:56.564Z,1344.00
2018-02-11T12:03:56.590Z,1224.00
2018-02-11T12:04:56.565Z,1100.00
2018-02-11T12:05:56.569Z,1088.00
2018-02-11T12:06:56.536Z,1200.00
2018-02-11T12:07:56.530Z,1328.00
2018-02-11T12:08:58.408Z,1352.00
2018-02-11T12:09:56.624Z,1364.00
2018-02-11T12:12:39.526Z,1344.00
2018-02-11T12:13:38.665Z,1328.00
2018-02-11T12:14:38.617Z,1268.00
2018-02-11T12:15:38.877Z,1320.00
2018-02-11T12:16:38.699Z,1324.00
2018-02-11T12:17:38.744Z,1344.00
2018-02-11T12:18:38.547Z,1356.00
2018-02-11T12:19:38.655Z,1288.00
2018-02-11T12:20:38.563Z,1216.00
2018-02-11T12:21:38.551Z,1208.00
2018-02-11T12:22:38.522Z,1244.00
2018-02-11T12:24:17.792Z,1244.00
2018-02-11T12:41:37.514Z,1020.00
2018-02-11T12:42:37.418Z,960.00
2018-02-11T12:44:32.575Z,956.00
2018-02-11T12:45:32.561Z,984.00
2018-02-11T12:47:27.088Z,980.00
2018-02-11T12:48:27.107Z,1008.00
2018-02-11T12:50:21.367Z,1048.00
2018-02-11T12:51:21.337Z,1068.00
2018-02-11T12:53:16.725Z,1124.00
2018-02-11T12:54:19.268Z,1104.00
2018-02-11T12:56:11.040Z,1056.00
2018-02-11T12:57:11.053Z,1012.00
2018-02-11T12:59:05.489Z,948.00
2018-02-11T13:00:05.610Z,984.00
2018-02-11T13:01:59.669Z,1120.00
2018-02-11T13:02:59.936Z,1136.00
2018-02-11T13:04:54.010Z,1020.00
2018-02-11T13:05:54.029Z,1040.00
2018-02-11T13:06:54.101Z,1100.00
2018-02-11T13:07:53.949Z,1140.00
2018-02-11T13:08:54.551Z,1188.00
2018-02-11T13:09:53.964Z,1252.00
2018-02-11T13:10:53.902Z,1196.00
2018-02-11T13:11:54.160Z,1144.00
2018-02-11T13:12:53.891Z,1208.00
2018-02-11T13:13:53.880Z,1244.00
2018-02-11T13:14:53.873Z,1404.00
2018-02-11T13:15:53.896Z,1524.00
2018-02-11T13:16:53.857Z,1604.00
2018-02-11T13:17:53.891Z,1772.00
2018-02-11T13:18:53.838Z,1828.00
2018-02-11T13:19:53.836Z,1748.00
2018-02-11T13:20:53.900Z,1740.00
2018-02-11T13:21:53.815Z,1640.00
2018-02-11T13:22:53.868Z,1572.00
2018-02-11T13:23:53.800Z,1532.00
2018-02-11T13:24:53.803Z,1548.00
2018-02-11T13:25:53.788Z,1400.00
2018-02-11T13:26:53.779Z,1424.00
2018-02-11T13:27:53.792Z,1500.00
2018-02-11T13:28:53.770Z,1468.00
2018-02-11T13:29:53.758Z,1432.00
2018-02-11T13:30:53.754Z,1400.00
2018-02-11T13:31:53.768Z,1344.00
2018-02-11T13:32:53.735Z,1316.00
2018-02-11T13:33:53.908Z,1276.00
2018-02-11T13:34:53.736Z,1204.00
2018-02-11T13:35:53.709Z,1136.00
2018-02-11T13:36:53.702Z,1116.00
2018-02-11T13:37:53.728Z,1048.00
2018-02-11T13:38:54.049Z,1088.00
2018-02-11T13:39:53.677Z,1060.00
2018-02-11T13:40:53.672Z,976.00
2018-02-11T13:41:53.661Z,936.00
2018-02-11T13:42:53.656Z,932.00
2018-02-11T13:43:53.649Z,972.00
2018-02-11T13:44:53.642Z,996.00
2018-02-11T13:45:53.673Z,984.00
2018-02-11T13:49:02.884Z,1040.00
2018-02-11T13:50:02.693Z,1056.00
2018-02-11T13:51:57.062Z,1032.00
2018-02-11T13:52:57.048Z,1024.00
2018-02-11T13:54:51.684Z,1016.00
2018-02-11T13:55:51.674Z,1072.00
2018-02-11T13:57:45.994Z,1192.00
2018-02-11T13:58:46.048Z,1216.00
2018-02-11T14:00:40.770Z,1364.00
2018-02-11T14:01:40.342Z,1356.00
2018-02-11T14:02:40.302Z,1356.00
2018-02-11T14:03:40.694Z,1348.00
2018-02-11T14:04:40.309Z,1360.00
2018-02-11T14:05:40.749Z,1460.00
2018-02-11T14:06:40.262Z,1420.00
2018-02-11T14:07:40.271Z,1320.00
2018-02-11T14:08:40.244Z,1272.00
2018-02-11T14:09:48.907Z,1144.00
2018-02-11T14:11:34.736Z,1104.00
2018-02-11T14:12:34.621Z,1128.00
2018-02-11T14:14:29.000Z,1028.00
2018-02-11T14:15:28.956Z,984.00
2018-02-11T14:17:23.445Z,968.00
2018-02-11T14:18:23.299Z,924.00
2018-02-11T14:20:17.669Z,1012.00
2018-02-11T14:21:17.656Z,976.00
2018-02-11T14:23:12.055Z,1044.00
2018-02-11T14:24:12.006Z,980.00
2018-02-11T14:26:06.414Z,888.00
2018-02-11T14:27:06.465Z,832.00